Flight Track Log - Related Links

Times and Time Zones

All times are in EDT time to prevent confusion due to time zone crossing. See the UAL495 flight status page for this flight to view local times or setup timezone preferences in your user account.

Time Position Orientation Groundspeed Altitude Reporting Facility
EDT Latitude Longitude Course Direction KTS MPH feet Rate Location/Type
Fri 12:42:06 PM 39.9333 -104.6667 96° East 226 260 7,100  Level Denver TRACON
Fri 12:42:55 PM 39.9233 -104.5944 100° East 280 322 8,600 1,500 Climbing Denver Center
Fri 12:43:58 PM 39.8608 -104.5150 136° Southeast 316 364 9,900 912 Climbing Denver Center
Fri 12:44:00 PM 39.7935 -104.1659 101° East  Level FlightAware
Fri 12:45:00 PM 39.7667 -104.0010 90° East  Level FlightAware
Fri 12:45:00 PM 39.8269 -104.3858 109° East 375 432 10,500  Level Denver Center
Fri 12:46:00 PM 39.7521 -103.8336 99° East  Level FlightAware
Fri 12:46:02 PM 39.8111 -104.2308 98° East 398 458 13,100  Level Denver Center
Fri 12:47:00 PM 39.7322 -103.6684 96° East  Level FlightAware
Fri 12:47:04 PM 39.7872 -104.0792 102° East 425 489 15,400  Level Denver Center
Fri 12:48:06 PM 39.7650 -103.9072 99° East 452 520 17,300 1,839 Climbing Denver Center
Fri 12:49:08 PM 39.7403 -103.7350 101° East 462 532 19,200 1,839 Climbing Denver Center
Fri 12:50:10 PM 39.7281 -103.5647 95° East 469 540 21,100 1,742 Climbing Denver Center
Fri 12:51:12 PM 39.7150 -103.3858 95° East 490 564 22,800 1,597 Climbing Denver Center
Fri 12:52:14 PM 39.7056 -103.2042 94° East 498 573 24,400 1,452 Climbing Denver Center
Fri 12:53:16 PM 39.6992 -103.0194 93° East 506 582 25,800 1,306 Climbing Denver Center
Fri 12:54:18 PM 39.6889 -102.8289 94° East 516 594 27,100 1,355 Climbing Denver Center
Fri 12:55:20 PM 39.6797 -102.6278 93° East 525 604 28,600 1,548 Climbing Denver Center
Fri 12:56:22 PM 39.6692 -102.4178 94° East 524 603 30,300 1,500 Climbing Denver Center
Fri 12:57:24 PM 39.6614 -102.2408 93° East 518 596 31,700 1,306 Climbing Denver Center
Fri 12:58:26 PM 39.6511 -102.0364 94° East 510 587 33,000 1,113 Climbing Denver Center
Fri 12:59:28 PM 39.6422 -101.8603 94° East 512 589 34,000 968 Climbing Denver Center
Fri 01:00:30 PM 39.6308 -101.6600 94° East 500 575 35,000 484 Climbing Denver Center
Fri 01:01:32 PM 39.6208 -101.4861 94° East 506 582 35,000  Level Denver Center
Fri 01:02:34 PM 39.6083 -101.2828 94° East 509 586 35,000  Level Denver Center
Fri 01:03:36 PM 39.5975 -101.1061 94° East 513 590 35,000  Level Denver Center
Fri 01:04:38 PM 39.5853 -100.9022 94° East 512 589 35,000  Level Denver Center
Fri 01:05:40 PM 39.5753 -100.7267 94° East 511 588 35,000  Level Denver Center
Fri 01:06:43 PM 39.5636 -100.5503 95° East 513 590 35,000  Level Denver Center
Fri 01:07:45 PM 39.5494 -100.3453 95° East 514 592 35,000  Level Denver Center
Fri 01:08:47 PM 39.5375 -100.1683 95° East 516 594 35,000  Level Denver Center
Fri 01:09:49 PM 39.5231 -99.9625 95° East 518 596 35,000  Level Denver Center
Fri 01:10:51 PM 39.5103 -99.7872 95° East 514 592 35,000  Level Denver Center
Fri 01:11:53 PM 39.4967 -99.6025 95° East 516 594 35,000  Level Denver Center
Fri 01:12:55 PM 39.4800 -99.3822 96° East 512 589 35,000  Level Denver Center
Fri 01:13:57 PM 39.4664 -99.1997 95° East 511 588 35,000  Level Denver Center
Fri 01:14:59 PM 39.4519 -99.0164 96° East 513 590 35,000  Level Denver Center
Fri 01:16:01 PM 39.4372 -98.8331 96° East 512 589 35,000  Level Denver Center
Fri 01:17:03 PM 39.4219 -98.6494 96° East 514 592 35,000  Level Denver Center
Fri 01:18:05 PM 39.4061 -98.4633 96° East 522 601 35,000  Level Denver Center
Fri 01:19:07 PM 39.3883 -98.2414 96° East 519 597 35,000  Level Denver Center
Fri 01:19:53 PM 39.3761 -98.1158 97° East 514 592 35,000  Level Kansas Center
Fri 01:20:54 PM 39.3625 -97.9394 96° East 515 593 35,000  Level Kansas Center
Fri 01:21:55 PM 39.3453 -97.7183 96° East 526 605 35,000  Level Kansas Center
Fri 01:22:59 PM 39.3283 -97.5333 97° East 521 600 35,000  Level Kansas Center
Fri 01:24:00 PM 39.3086 -97.3436 98° East 520 598 35,000  Level Kansas Center
Fri 01:25:03 PM 39.2914 -97.1631 97° East 527 606 35,000  Level Kansas Center
Fri 01:26:05 PM 39.2722 -96.9539 97° East 528 608 35,000  Level Kansas Center
Fri 01:27:08 PM 39.2553 -96.7731 97° East 529 609 35,000  Level Kansas Center
Fri 01:28:08 PM 39.2333 -96.5622 98° East 531 611 35,000  Level Kansas Center
Fri 01:29:12 PM 39.2153 -96.3817 97° East 529 609 35,000  Level Kansas Center
Fri 01:30:12 PM 39.1944 -96.1689 97° East 534 615 35,000  Level Kansas Center
Fri 01:31:13 PM 39.1753 -95.9878 98° East 534 615 35,000  Level Kansas Center
Fri 01:32:17 PM 39.1561 -95.8042 98° East 539 620 35,000  Level Kansas Center
Fri 01:33:18 PM 39.1342 -95.5906 97° East 540 621 35,000  Level Kansas Center
Fri 01:34:19 PM 39.1117 -95.3822 98° East 538 619 35,000  Level Kansas Center
Fri 01:35:23 PM 39.0911 -95.1967 98° East 529 609 35,000  Level Kansas Center
Fri 01:36:24 PM 39.0678 -95.0011 99° East 530 610 35,000  Level Kansas Center
Fri 01:37:28 PM 39.0469 -94.8206 98° East 534 615 35,000  Level Kansas Center
Fri 01:38:29 PM 39.0217 -94.6089 99° East 536 617 35,000  Level Kansas Center
Fri 01:39:30 PM 38.9997 -94.4278 99° East 536 617 35,000  Level Kansas Center
Fri 01:40:33 PM 38.9717 -94.2139 100° East 544 626 35,000  Level Kansas Center
Fri 01:41:34 PM 38.9500 -94.0303 99° East 543 625 35,000  Level Kansas Center
Fri 01:42:38 PM 38.9236 -93.8144 99° East 547 629 35,000  Level Kansas Center
Fri 01:43:40 PM 38.9006 -93.6203 99° East 549 632 35,000  Level Kansas Center
Fri 01:44:40 PM 38.8758 -93.4300 99° East 543 625 35,000  Level Kansas Center
Fri 01:45:44 PM 38.8522 -93.2444 99° East 533 613 35,000  Level Kansas Center
Fri 01:46:44 PM 38.8278 -93.0592 100° East 527 606 35,000  Level Kansas Center
Fri 01:47:48 PM 38.8025 -92.8733 100° East 525 604 35,000  Level Kansas Center
Fri 01:48:49 PM 38.7772 -92.6856 100° East 528 608 35,000  Level Kansas Center
Fri 01:49:52 PM 38.7461 -92.4600 100° East 530 610 35,000  Level Kansas Center
Fri 01:50:53 PM 38.7203 -92.2678 100° East 537 618 35,000  Level Kansas Center
Fri 01:51:55 PM 38.6944 -92.0806 100° East 534 615 35,000  Level Kansas Center
Fri 01:52:58 PM 38.6833 -91.8864 94° East 541 623 35,000  Level Kansas Center
Fri 01:53:58 PM 38.6783 -91.6872 92° East 549 632 35,000  Level Kansas Center
Fri 01:55:00 PM 38.6708 -91.4853 93° East 557 641 35,000  Level Kansas Center
Fri 01:56:03 PM 38.6631 -91.2942 93° East 558 642 35,000  Level Kansas Center
Fri 01:57:05 PM 38.6569 -91.0994 92° East 553 636 35,000  Level Kansas Center
Fri 01:58:07 PM 38.6475 -90.8639 93° East 555 639 35,000  Level Kansas Center
Fri 01:59:11 PM 38.6386 -90.6575 93° East 550 633 35,000  Level Kansas Center
Fri 02:00:11 PM 38.6286 -90.4619 94° East 548 631 35,000  Level Kansas Center
Fri 02:01:13 PM 38.6233 -90.2575 92° East 551 634 35,000  Level Kansas Center
Fri 02:02:16 PM 38.6136 -90.0625 94° East 554 638 35,000  Level Kansas Center
Fri 02:03:17 PM 38.6036 -89.8669 94° East 550 633 35,000  Level Kansas Center
Fri 02:04:19 PM 38.5936 -89.6733 94° East 546 628 35,000  Level Kansas Center
Fri 02:05:22 PM 38.5853 -89.4747 93° East 555 639 35,000  Level Kansas Center
Fri 02:06:23 PM 38.5747 -89.2792 94° East 556 640 35,000  Level Kansas Center
Fri 02:07:26 PM 38.5625 -89.0453 94° East 553 636 35,000  Level Kansas Center
Fri 02:08:28 PM 38.5514 -88.8536 94° East 547 629 35,000  Level Kansas Center
Fri 02:09:28 PM 38.5400 -88.6611 94° East 547 629 35,000  Level Kansas Center
Fri 02:10:32 PM 38.5289 -88.4636 94° East 541 623 35,000  Level Kansas Center
Fri 02:11:34 PM 38.5172 -88.2722 94° East 540 621 35,000  Level Kansas Center
Fri 02:12:36 PM 38.5050 -88.0825 95° East 538 619 35,000  Level Kansas Center
Fri 02:13:39 PM 38.4800 -87.8997 100° East 525 604 35,000  Level Kansas Center
Fri 02:14:23 PM 38.4608 -87.7536 99° East 525 604 35,000  Level Indianapolis Center
Fri 02:15:25 PM 38.4383 -87.5681 99° East 526 605 35,000 97 Level Indianapolis Center
Fri 02:16:27 PM 38.4122 -87.3428 98° East 532 612 35,200 293 Climbing Indianapolis Center
Fri 02:17:28 PM 38.3908 -87.1597 98° East 532 612 35,600 488 Climbing Indianapolis Center
Fri 02:18:30 PM 38.3711 -86.9719 98° East 536 617 36,200 484 Climbing Indianapolis Center
Fri 02:19:32 PM 38.3694 -86.7931 91° East 552 635 36,600 390 Climbing Indianapolis Center
Fri 02:20:33 PM 38.3731 -86.5947 89° East 557 641 37,000 195 Climbing Indianapolis Center
Fri 02:21:35 PM 38.3744 -86.3583 89° East 550 633 37,000  Level Indianapolis Center
Fri 02:22:37 PM 38.3775 -86.1603 89° East 553 636 37,000  Level Indianapolis Center
Fri 02:23:40 PM 38.3800 -85.9631 89° East 556 640 37,000  Level Indianapolis Center
Fri 02:24:40 PM 38.3833 -85.7675 89° East 552 635 37,000  Level Indianapolis Center
Fri 02:25:42 PM 38.3853 -85.5708 89° East 552 635 37,000  Level Indianapolis Center
Fri 02:26:43 PM 38.3872 -85.3753 89° East 550 633 37,000  Level Indianapolis Center
Fri 02:27:45 PM 38.3878 -85.1717 90° East 553 636 37,000  Level Indianapolis Center
Fri 02:28:47 PM 38.3872 -84.9753 90° East 556 640 37,000  Level Indianapolis Center
Fri 02:29:49 PM 38.3889 -84.7789 89° East 556 640 37,000  Level Indianapolis Center
Fri 02:30:50 PM 38.3875 -84.5522 90° East 551 634 37,000  Level Indianapolis Center
Fri 02:31:52 PM 38.3872 -84.3561 90° East 551 634 37,000  Level Indianapolis Center
Fri 02:32:54 PM 38.3864 -84.1631 90° East 546 628 37,000  Level Indianapolis Center
Fri 02:33:56 PM 38.3853 -83.9708 90° East 541 623 37,000  Level Indianapolis Center
Fri 02:34:57 PM 38.3828 -83.7808 91° East 536 617 37,000  Level Indianapolis Center
Fri 02:35:59 PM 38.3819 -83.5906 90° East 535 616 37,000  Level Indianapolis Center
Fri 02:37:01 PM 38.3803 -83.3697 90° East 534 615 37,000  Level Indianapolis Center
Fri 02:38:03 PM 38.3778 -83.1819 91° East 529 609 37,000  Level Indianapolis Center
Fri 02:39:05 PM 38.3750 -82.9947 91° East 527 606 37,000  Level Indianapolis Center
Fri 02:40:06 PM 38.3722 -82.8078 91° East 527 606 37,000 -341 Level Indianapolis Center
Fri 02:41:08 PM 38.3678 -82.6208 92° East 527 606 36,300 -774 Descending Indianapolis Center
Fri 02:42:10 PM 38.3642 -82.4206 91° East 531 611 35,400 -629 Descending Indianapolis Center
Fri 02:43:12 PM 38.3606 -82.2353 91° East 526 605 35,000 -488 Descending Indianapolis Center
Fri 02:44:13 PM 38.3578 -82.0572 91° East 508 585 34,400 -488 Descending Indianapolis Center
Fri 02:45:15 PM 38.3522 -81.8792 92° East 506 582 34,000 -435 Descending Indianapolis Center
Fri 02:46:17 PM 38.3481 -81.7008 92° East 508 585 33,500 -484 Descending Indianapolis Center
Fri 02:47:19 PM 38.3408 -81.4858 92° East 513 590 33,000 -242 Descending Indianapolis Center
Fri 02:48:21 PM 38.3347 -81.3039 92° East 518 596 33,000  Level Indianapolis Center
Fri 02:49:22 PM 38.3283 -81.1264 93° East 508 585 33,000  Level Indianapolis Center
Fri 02:49:43 PM 38.3264 -81.0522 92° East 505 581 33,000  Level Washington Center
Fri 02:50:43 PM 38.3175 -80.8769 94° East 505 581 33,000  Level Washington Center
Fri 02:51:43 PM 38.3125 -80.7017 92° East 499 574 33,000  Level Washington Center
Fri 02:52:43 PM 38.3036 -80.5186 93° East 499 574 33,000 -200 Level Washington Center
Fri 02:53:43 PM 38.3233 -80.3372 82° East 513 590 32,600 -744 Descending Washington Center
Fri 02:54:44 PM 38.3694 -80.1733 70° East 522 601 31,500 -1,500 Descending Washington Center
Fri 02:55:43 PM 38.4075 -79.9903 75° East 522 601 29,600 -1,966 Descending Washington Center
Fri 02:56:43 PM 38.4453 -79.8122 75° East 527 606 27,600 -1,950 Descending Washington Center
Fri 02:57:43 PM 38.4847 -79.6314 74° East 527 606 25,700 -1,800 Descending Washington Center
Fri 02:58:43 PM 38.5247 -79.4344 75° East 522 601 24,000 -1,150 Descending Washington Center
Fri 02:59:43 PM 38.5572 -79.2556 77° East 522 601 23,400 -1,800 Descending Washington Center
Fri 03:00:43 PM 38.5858 -79.0736 79° East 522 601 20,400 -2,750 Descending Washington Center
Fri 03:01:43 PM 38.6136 -78.8969 79° East 516 594 17,900 -2,050 Descending Washington Center
Fri 03:02:43 PM 38.6450 -78.7336 76° East 492 566 16,300 -2,033 Descending Washington Center
Fri 03:03:44 PM 38.6847 -78.5758 72° East 473 544 13,800 -2,380 Descending Washington Center
Fri 03:04:44 PM 38.7197 -78.4200 74° East 456 525 11,500 -1,613 Descending Washington Center
Fri 03:05:43 PM 38.7850 -78.2975 56° Northeast 421 484 10,600 -756 Descending Washington Center
Fri 03:06:43 PM 38.8781 -78.2422 25° Northeast 372 428 10,000 -800 Descending Washington Center
Fri 03:07:43 PM 38.9725 -78.2083 16° North 350 403 9,000 -1,250 Descending Washington Center
Fri 03:08:43 PM 39.0547 -78.1603 24° Northeast 339 390 7,500 -1,289 Descending Washington Center
Fri 03:09:44 PM 39.1253 -78.0825 41° Northeast 328 377 6,400 -1,200 Descending Washington Center
Fri 03:10:43 PM 39.1875 -78.0017 45° Northeast 323 372 5,100 -650 Descending Washington Center
Fri 03:11:44 PM 39.2000 -77.8922 82° East 291 335 5,100  Level Washington Center
Fri 03:12:43 PM 39.2061 -77.7825 86° East 291 335 5,100 -68 Level Washington Center
Fri 03:14:40 PM 39.2333 -77.5833 80° East 275 316 4,900 -373 Descending Potomac TRACON
Fri 03:15:40 PM 39.2333 -77.5000 90° East 241 277 4,000 -667 Descending Potomac TRACON
Fri 03:16:46 PM 39.1833 -77.4667 153° Southeast 175 201 3,500 -550 Descending Potomac TRACON
Fri 03:17:40 PM 39.1500 -77.4500 159° South 155 178 2,900 -450 Descending Potomac TRACON
Fri 03:18:46 PM 39.1000 -77.4500 180° South 156 180 2,600 -524 Descending Potomac TRACON
Fri 03:19:46 PM 39.0500 -77.4667 195° South 158 182 1,800 -800 Descending Potomac TRACON

Login

Don't have an account? Register now (free) for customized features, flight alerts, and more!